createdAt,value
2023-02-23T00:00:24.777Z,21.31
2023-02-23T00:01:25.850Z,21.32
2023-02-23T00:02:25.949Z,21.30
2023-02-23T00:03:25.988Z,21.28
2023-02-23T00:04:26.024Z,21.31
2023-02-23T00:05:26.077Z,21.27
2023-02-23T00:06:25.247Z,21.25
2023-02-23T00:07:26.211Z,21.24
2023-02-23T00:08:26.277Z,21.27
2023-02-23T00:09:26.331Z,21.28
2023-02-23T00:10:26.401Z,21.21
2023-02-23T00:11:25.457Z,21.28
2023-02-23T00:12:26.517Z,21.24
2023-02-23T00:13:26.585Z,21.24
2023-02-23T00:14:26.650Z,21.22
2023-02-23T00:15:26.705Z,21.25
2023-02-23T00:16:25.805Z,21.24
2023-02-23T00:17:26.841Z,21.21
2023-02-23T00:18:26.890Z,21.24
2023-02-23T00:19:26.959Z,21.24
2023-02-23T00:20:27.004Z,21.25
2023-02-23T00:21:26.078Z,21.24
2023-02-23T00:22:27.160Z,21.20
2023-02-23T00:23:26.180Z,21.24
2023-02-23T00:24:26.255Z,21.21
2023-02-23T00:25:27.316Z,21.24
2023-02-23T00:26:27.359Z,21.25
2023-02-23T00:27:26.409Z,21.21
2023-02-23T00:28:27.493Z,21.24
2023-02-23T00:29:27.548Z,21.27
2023-02-23T00:30:27.638Z,21.20
2023-02-23T00:31:27.706Z,21.22
2023-02-23T00:32:27.822Z,21.20
2023-02-23T00:33:27.784Z,21.18
2023-02-23T00:34:27.869Z,21.18
2023-02-23T00:35:26.918Z,21.24
2023-02-23T00:36:27.998Z,21.21
2023-02-23T00:37:28.048Z,21.17
2023-02-23T00:38:28.127Z,21.20
2023-02-23T00:39:28.152Z,21.18
2023-02-23T00:40:28.222Z,21.18
2023-02-23T00:41:28.360Z,21.24
2023-02-23T00:42:28.400Z,21.25
2023-02-23T00:43:28.417Z,21.25
2023-02-23T00:44:27.474Z,21.24
2023-02-23T00:45:28.533Z,21.24
2023-02-23T00:46:27.585Z,21.22
2023-02-23T00:47:28.635Z,21.20
2023-02-23T00:48:27.714Z,21.24
2023-02-23T00:49:27.766Z,21.30
2023-02-23T00:50:28.816Z,21.24
2023-02-23T00:51:28.865Z,21.22
2023-02-23T00:52:28.909Z,21.24
2023-02-23T00:53:28.976Z,21.22
2023-02-23T00:54:28.095Z,21.20
2023-02-23T00:55:28.076Z,21.21
2023-02-23T00:56:28.139Z,21.21
2023-02-23T00:57:29.185Z,21.18
2023-02-23T00:58:29.268Z,21.22
2023-02-23T00:59:29.293Z,21.24
2023-02-23T01:00:29.349Z,21.21
2023-02-23T01:01:29.471Z,21.20
2023-02-23T01:02:29.491Z,21.21
2023-02-23T01:03:29.513Z,21.21
2023-02-23T01:04:29.567Z,21.21
2023-02-23T01:05:29.617Z,21.21
2023-02-23T01:06:28.686Z,21.15
2023-02-23T01:07:29.727Z,21.24
2023-02-23T01:08:29.795Z,21.15
2023-02-23T01:09:29.859Z,21.20
2023-02-23T01:10:29.958Z,21.21
2023-02-23T01:11:28.948Z,21.18
2023-02-23T01:12:30.003Z,21.18
2023-02-23T01:13:30.088Z,21.24
2023-02-23T01:14:29.122Z,21.18
2023-02-23T01:15:30.193Z,21.17
2023-02-23T01:16:30.267Z,21.20
2023-02-23T01:17:30.306Z,21.18
2023-02-23T01:18:29.356Z,21.22
2023-02-23T01:19:30.424Z,21.13
2023-02-23T01:20:30.484Z,21.17
2023-02-23T01:21:30.535Z,21.17
2023-02-23T01:22:30.587Z,21.18
2023-02-23T01:23:30.661Z,21.15
2023-02-23T01:24:30.720Z,21.13
2023-02-23T01:25:30.760Z,21.15
2023-02-23T01:26:30.866Z,21.15
2023-02-23T01:27:30.897Z,21.15
2023-02-23T01:28:30.945Z,21.13
2023-02-23T01:29:30.004Z,21.14
2023-02-23T01:30:31.079Z,21.14
2023-02-23T01:31:31.219Z,21.13
2023-02-23T01:32:31.194Z,21.14
2023-02-23T01:33:31.244Z,21.11
2023-02-23T01:34:31.321Z,21.14
2023-02-23T01:35:31.378Z,21.14
2023-02-23T01:36:31.428Z,21.14
2023-02-23T01:37:31.504Z,21.08
2023-02-23T01:38:31.569Z,21.10
2023-02-23T01:39:31.634Z,21.13
2023-02-23T01:40:31.679Z,21.08
2023-02-23T01:41:31.752Z,21.10
2023-02-23T01:42:31.836Z,21.13
2023-02-23T01:43:31.876Z,21.14
2023-02-23T01:44:31.994Z,21.13
2023-02-23T01:45:31.999Z,21.10
2023-02-23T01:46:32.082Z,21.14
2023-02-23T01:47:31.110Z,21.14
2023-02-23T01:48:32.726Z,21.11
2023-02-23T01:49:32.309Z,21.11
2023-02-23T01:50:32.336Z,21.13
2023-02-23T01:51:32.394Z,21.11
2023-02-23T01:52:32.437Z,21.11
2023-02-23T01:53:32.501Z,21.08
2023-02-23T01:54:31.566Z,21.08
2023-02-23T01:55:32.629Z,21.07
2023-02-23T01:56:32.689Z,21.05
2023-02-23T01:57:32.745Z,21.13
2023-02-23T01:58:32.882Z,21.05
2023-02-23T01:59:32.897Z,21.08
2023-02-23T02:00:32.941Z,21.13
2023-02-23T02:01:33.064Z,21.10
2023-02-23T02:02:33.093Z,21.07
2023-02-23T02:03:33.141Z,21.07
2023-02-23T02:04:33.198Z,21.03
2023-02-23T02:05:33.285Z,21.04
2023-02-23T02:06:33.318Z,21.00
2023-02-23T02:07:33.381Z,21.05
2023-02-23T02:08:33.450Z,21.10
2023-02-23T02:09:33.515Z,21.05
2023-02-23T02:10:33.574Z,21.07
2023-02-23T02:11:33.645Z,21.18
2023-02-23T02:12:32.683Z,21.25
2023-02-23T02:13:33.752Z,21.20
2023-02-23T02:14:33.943Z,21.22
2023-02-23T02:15:33.881Z,21.24
2023-02-23T02:16:33.934Z,21.31
2023-02-23T02:17:34.000Z,21.35
2023-02-23T02:18:34.054Z,21.37
2023-02-23T02:19:34.136Z,21.41
2023-02-23T02:20:33.312Z,21.46
2023-02-23T02:21:33.206Z,21.48
2023-02-23T02:22:34.269Z,21.45
2023-02-23T02:23:34.323Z,21.51
2023-02-23T02:24:34.417Z,21.52
2023-02-23T02:25:34.442Z,21.55
2023-02-23T02:26:34.512Z,21.60
2023-02-23T02:27:34.554Z,21.60
2023-02-23T02:28:34.618Z,21.65
2023-02-23T02:29:33.675Z,21.69
2023-02-23T02:30:34.839Z,21.72
2023-02-23T02:31:34.846Z,21.76
2023-02-23T02:32:34.819Z,21.80
2023-02-23T02:33:34.853Z,21.83
2023-02-23T02:34:34.905Z,21.86
2023-02-23T02:35:34.918Z,21.86
2023-02-23T02:36:34.964Z,21.90
2023-02-23T02:37:34.991Z,21.92
2023-02-23T02:38:35.024Z,21.96
2023-02-23T02:39:35.092Z,21.96
2023-02-23T02:40:34.074Z,21.96
2023-02-23T02:41:35.161Z,22.00
2023-02-23T02:42:35.122Z,22.01
2023-02-23T02:43:34.185Z,22.04
2023-02-23T02:44:34.163Z,22.04
2023-02-23T02:45:35.188Z,22.10
2023-02-23T02:46:35.271Z,22.07
2023-02-23T02:47:35.249Z,22.13
2023-02-23T02:48:35.250Z,22.14
2023-02-23T02:49:35.264Z,22.13
2023-02-23T02:50:35.283Z,22.17
2023-02-23T02:51:35.329Z,22.17
2023-02-23T02:52:34.308Z,22.16
2023-02-23T02:53:35.316Z,22.20
2023-02-23T02:54:35.324Z,22.18
2023-02-23T02:55:35.341Z,22.23
2023-02-23T02:56:35.345Z,22.24
2023-02-23T02:57:35.351Z,22.23
2023-02-23T02:58:35.336Z,22.24
2023-02-23T02:59:35.345Z,22.28
2023-02-23T03:00:35.332Z,22.28
2023-02-23T03:01:35.388Z,22.31
2023-02-23T03:02:35.356Z,22.34
2023-02-23T03:03:35.325Z,22.33
2023-02-23T03:04:35.334Z,22.30
2023-02-23T03:05:35.317Z,22.33
2023-02-23T03:06:35.322Z,22.34
2023-02-23T03:07:35.327Z,22.35
2023-02-23T03:08:34.346Z,22.35
2023-02-23T03:09:34.382Z,22.34
2023-02-23T03:10:35.394Z,22.38
2023-02-23T03:11:35.413Z,22.41
2023-02-23T03:12:35.456Z,22.41
2023-02-23T03:13:35.470Z,22.43
2023-02-23T03:14:34.535Z,22.43
2023-02-23T03:15:35.510Z,22.44
2023-02-23T03:16:35.530Z,22.43
2023-02-23T03:17:38.117Z,22.43
2023-02-23T03:18:35.592Z,22.41
2023-02-23T03:19:35.596Z,22.41
2023-02-23T03:20:35.556Z,22.41
2023-02-23T03:21:34.542Z,22.37
2023-02-23T03:22:35.535Z,22.40
2023-02-23T03:23:35.535Z,22.38
2023-02-23T03:24:35.550Z,22.43
2023-02-23T03:25:35.530Z,22.40
2023-02-23T03:26:35.522Z,22.38
2023-02-23T03:27:35.549Z,22.38
2023-02-23T03:28:34.500Z,22.40
2023-02-23T03:29:35.531Z,22.38
2023-02-23T03:30:35.524Z,22.40
2023-02-23T03:31:34.587Z,22.37
2023-02-23T03:32:35.592Z,22.34
2023-02-23T03:33:35.485Z,22.34
2023-02-23T03:34:34.469Z,22.35
2023-02-23T03:35:35.447Z,22.34
2023-02-23T03:36:34.444Z,22.34
2023-02-23T03:37:35.435Z,22.34
2023-02-23T03:38:35.422Z,22.33
2023-02-23T03:39:35.446Z,22.34
2023-02-23T03:40:35.435Z,22.34
2023-02-23T03:41:34.402Z,22.31
2023-02-23T03:42:35.392Z,22.34
2023-02-23T03:43:35.394Z,22.31
2023-02-23T03:44:35.391Z,22.31
2023-02-23T03:45:35.443Z,22.31
2023-02-23T03:46:35.371Z,22.33
2023-02-23T03:47:35.382Z,22.33
2023-02-23T03:48:35.371Z,22.33
2023-02-23T03:49:34.348Z,22.34
2023-02-23T03:50:35.423Z,22.35
2023-02-23T03:51:34.348Z,22.34
2023-02-23T03:52:35.327Z,22.37
2023-02-23T03:53:34.325Z,22.40
2023-02-23T03:54:35.322Z,22.37
2023-02-23T03:55:35.306Z,22.43
2023-02-23T03:56:35.313Z,22.38
2023-02-23T03:57:35.299Z,22.38
2023-02-23T03:58:35.280Z,22.40
2023-02-23T03:59:34.268Z,22.43
2023-02-23T04:00:35.269Z,22.40
2023-02-23T04:01:35.293Z,22.41
2023-02-23T04:02:35.248Z,22.44
2023-02-23T04:03:35.269Z,22.41
2023-02-23T04:04:35.231Z,22.43
2023-02-23T04:05:35.243Z,22.45
2023-02-23T04:06:35.243Z,22.50
2023-02-23T04:07:35.216Z,22.50
2023-02-23T04:08:35.206Z,22.47
2023-02-23T04:09:35.205Z,22.47
2023-02-23T04:10:35.204Z,22.45
2023-02-23T04:11:35.193Z,22.50
2023-02-23T04:12:35.184Z,22.47
2023-02-23T04:13:35.187Z,22.47
2023-02-23T04:14:35.188Z,22.47
2023-02-23T04:15:35.167Z,22.48
2023-02-23T04:16:35.194Z,22.48
2023-02-23T04:17:35.171Z,22.47
2023-02-23T04:18:34.160Z,22.47
2023-02-23T04:19:35.147Z,22.48
2023-02-23T04:20:34.249Z,22.47
2023-02-23T04:21:34.136Z,22.52
2023-02-23T04:22:34.266Z,22.50
2023-02-23T04:23:35.119Z,22.50
2023-02-23T04:24:35.109Z,22.51
2023-02-23T04:25:35.149Z,22.51
2023-02-23T04:26:35.090Z,22.50
2023-02-23T04:27:35.093Z,22.50
2023-02-23T04:28:34.110Z,22.50
2023-02-23T04:29:35.163Z,22.54
2023-02-23T04:30:35.273Z,22.51
2023-02-23T04:31:35.412Z,22.50
2023-02-23T04:32:35.470Z,22.48
2023-02-23T04:33:35.352Z,22.50
2023-02-23T04:34:35.423Z,22.51
2023-02-23T04:35:35.496Z,22.51
2023-02-23T04:36:35.504Z,22.54
2023-02-23T04:37:36.189Z,22.51
2023-02-23T04:38:35.669Z,22.50
2023-02-23T04:39:34.670Z,22.54
2023-02-23T04:40:35.742Z,22.54
2023-02-23T04:41:35.759Z,22.54
2023-02-23T04:42:35.812Z,22.52
2023-02-23T04:43:35.853Z,22.51
2023-02-23T04:44:35.939Z,22.50
2023-02-23T04:45:36.007Z,22.52
2023-02-23T04:46:36.031Z,22.52
2023-02-23T04:47:36.087Z,22.51
2023-02-23T04:48:36.145Z,22.56
2023-02-23T04:49:36.189Z,22.55
2023-02-23T04:50:36.244Z,22.51
2023-02-23T04:51:35.308Z,22.52
2023-02-23T04:52:35.345Z,22.54
2023-02-23T04:53:35.414Z,22.51
2023-02-23T04:54:36.445Z,22.51
2023-02-23T04:55:36.502Z,22.54
2023-02-23T04:56:35.516Z,22.52
2023-02-23T04:57:35.569Z,22.52
2023-02-23T04:58:36.164Z,22.51
2023-02-23T04:59:35.658Z,22.54
2023-02-23T05:00:36.750Z,22.51
2023-02-23T05:01:36.843Z,22.52
2023-02-23T05:02:35.831Z,22.51
2023-02-23T05:03:36.850Z,22.52
2023-02-23T05:04:35.969Z,22.51
2023-02-23T05:05:36.968Z,22.52
2023-02-23T05:06:36.984Z,22.51
2023-02-23T05:07:37.033Z,22.55
2023-02-23T05:08:37.059Z,22.55
2023-02-23T05:09:37.115Z,22.50
2023-02-23T05:10:39.823Z,22.54
2023-02-23T05:11:37.128Z,22.52
2023-02-23T05:12:37.158Z,22.52
2023-02-23T05:13:36.128Z,22.54
2023-02-23T05:14:36.131Z,22.51
2023-02-23T05:15:36.127Z,22.52
2023-02-23T05:16:36.097Z,22.52
2023-02-23T05:17:37.085Z,22.52
2023-02-23T05:18:37.093Z,22.50
2023-02-23T05:19:36.080Z,22.51
2023-02-23T05:20:37.139Z,22.52
2023-02-23T05:21:36.065Z,22.52
2023-02-23T05:22:37.049Z,22.51
2023-02-23T05:23:37.059Z,22.52
2023-02-23T05:24:37.050Z,22.54
2023-02-23T05:25:37.056Z,22.51
2023-02-23T05:26:37.038Z,22.51
2023-02-23T05:27:37.114Z,22.51
2023-02-23T05:28:36.015Z,22.50
2023-02-23T05:29:37.016Z,22.48
2023-02-23T05:30:37.029Z,22.51
2023-02-23T05:31:37.070Z,22.48
2023-02-23T05:32:36.031Z,22.51
2023-02-23T05:33:36.990Z,22.48
2023-02-23T05:34:36.979Z,22.51
2023-02-23T05:35:36.972Z,22.48
2023-02-23T05:36:36.967Z,22.50
2023-02-23T05:37:36.956Z,22.51
2023-02-23T05:38:36.946Z,22.51
2023-02-23T05:39:36.935Z,22.51
2023-02-23T05:40:36.933Z,22.50
2023-02-23T05:41:36.986Z,22.51
2023-02-23T05:42:36.926Z,22.50
2023-02-23T05:43:36.917Z,22.50
2023-02-23T05:44:36.905Z,22.48
2023-02-23T05:45:36.888Z,22.51
2023-02-23T05:46:36.974Z,22.51
2023-02-23T05:47:37.002Z,22.51
2023-02-23T05:48:37.068Z,22.51
2023-02-23T05:49:36.100Z,22.50
2023-02-23T05:50:36.163Z,22.47
2023-02-23T05:51:37.233Z,22.51
2023-02-23T05:52:37.264Z,22.50
2023-02-23T05:53:37.315Z,22.50
2023-02-23T05:54:37.352Z,22.48
2023-02-23T05:55:37.396Z,22.50
2023-02-23T05:56:37.438Z,22.50
2023-02-23T05:57:37.507Z,22.52
2023-02-23T05:58:36.528Z,22.48
2023-02-23T05:59:37.582Z,22.50
2023-02-23T06:00:37.613Z,22.48
2023-02-23T06:01:37.654Z,22.45
2023-02-23T06:02:37.756Z,22.45
2023-02-23T06:03:37.758Z,22.50
2023-02-23T06:04:36.725Z,22.51
2023-02-23T06:05:37.760Z,22.52
2023-02-23T06:06:37.799Z,22.50
2023-02-23T06:07:37.827Z,22.48
2023-02-23T06:08:37.853Z,22.50
2023-02-23T06:09:37.880Z,22.52
2023-02-23T06:10:37.918Z,22.51
2023-02-23T06:11:36.962Z,22.54
2023-02-23T06:12:38.006Z,22.52
2023-02-23T06:13:38.053Z,22.51
2023-02-23T06:14:37.071Z,22.51
2023-02-23T06:15:37.289Z,22.51
2023-02-23T06:16:38.380Z,22.52
2023-02-23T06:17:37.192Z,22.52
2023-02-23T06:18:37.217Z,22.51
2023-02-23T06:19:38.249Z,22.50
2023-02-23T06:20:40.298Z,22.54
2023-02-23T06:21:38.278Z,22.55
2023-02-23T06:22:37.269Z,22.54
2023-02-23T06:23:37.252Z,22.54
2023-02-23T06:24:37.255Z,22.51
2023-02-23T06:25:38.248Z,22.52
2023-02-23T06:26:37.268Z,22.52
2023-02-23T06:27:38.236Z,22.52
2023-02-23T06:28:38.240Z,22.58
2023-02-23T06:29:38.238Z,22.59
2023-02-23T06:30:38.251Z,22.54
2023-02-23T06:31:37.349Z,22.59
2023-02-23T06:32:37.235Z,22.64
2023-02-23T06:33:37.199Z,22.65
2023-02-23T06:34:37.179Z,22.66
2023-02-23T06:35:38.264Z,22.56
2023-02-23T06:36:38.300Z,22.56
2023-02-23T06:37:38.157Z,22.66
2023-02-23T06:38:38.169Z,22.68
2023-02-23T06:39:38.162Z,22.69
2023-02-23T06:40:38.169Z,22.71
2023-02-23T06:41:37.186Z,22.72
2023-02-23T06:42:38.131Z,22.85
2023-02-23T06:43:37.122Z,22.82
2023-02-23T06:44:38.137Z,22.80
2023-02-23T06:45:38.177Z,22.85
2023-02-23T06:46:38.216Z,22.86
2023-02-23T06:47:37.115Z,22.55
2023-02-23T06:48:38.082Z,21.92
2023-02-23T06:49:38.077Z,21.15
2023-02-23T06:50:38.084Z,21.15
2023-02-23T06:51:38.088Z,21.15
2023-02-23T06:52:38.079Z,21.27
2023-02-23T06:53:37.066Z,21.25
2023-02-23T06:54:38.070Z,20.90
2023-02-23T06:55:38.139Z,21.00
2023-02-23T06:56:38.196Z,21.30
2023-02-23T06:57:38.303Z,21.42
2023-02-23T06:58:38.319Z,21.51
2023-02-23T06:59:38.344Z,21.56
2023-02-23T07:00:38.419Z,21.66
2023-02-23T07:01:38.601Z,21.59
2023-02-23T07:02:38.828Z,21.82
2023-02-23T07:03:38.533Z,22.04
2023-02-23T07:04:38.515Z,22.21
2023-02-23T07:05:38.532Z,22.45
2023-02-23T07:06:38.562Z,22.56
2023-02-23T07:07:37.670Z,22.59
2023-02-23T07:08:37.671Z,22.72
2023-02-23T07:09:38.710Z,22.82
2023-02-23T07:10:37.961Z,22.91
2023-02-23T07:11:39.167Z,23.03
2023-02-23T07:12:38.830Z,23.10
2023-02-23T07:13:38.812Z,23.13
2023-02-23T07:14:38.990Z,23.20
2023-02-23T07:15:38.844Z,23.27
2023-02-23T07:16:38.969Z,23.36
2023-02-23T07:17:38.023Z,23.46
2023-02-23T07:18:39.035Z,23.50
2023-02-23T07:19:39.053Z,23.54
2023-02-23T07:20:39.125Z,23.61
2023-02-23T07:21:39.158Z,23.61
2023-02-23T07:22:39.887Z,23.69
2023-02-23T07:23:38.235Z,23.69
2023-02-23T07:24:39.289Z,23.69
2023-02-23T07:25:39.334Z,23.71
2023-02-23T07:26:38.515Z,23.77
2023-02-23T07:27:39.441Z,23.75
2023-02-23T07:28:39.498Z,23.86
2023-02-23T07:29:39.532Z,23.82
2023-02-23T07:30:39.864Z,23.81
2023-02-23T07:31:38.763Z,23.86
2023-02-23T07:32:39.756Z,23.89
2023-02-23T07:33:39.767Z,23.88
2023-02-23T07:34:39.850Z,23.89
2023-02-23T07:35:39.774Z,23.92
2023-02-23T07:36:40.115Z,23.98
2023-02-23T07:37:40.165Z,23.99
2023-02-23T07:38:39.100Z,24.02
2023-02-23T07:39:39.945Z,23.98
2023-02-23T07:40:39.242Z,24.04
2023-02-23T07:41:40.000Z,23.98
2023-02-23T07:42:40.191Z,24.04
2023-02-23T07:43:40.038Z,24.15
2023-02-23T07:44:40.046Z,24.12
2023-02-23T07:45:40.115Z,24.13
2023-02-23T07:46:40.057Z,24.13
2023-02-23T07:47:40.113Z,24.12
2023-02-23T07:48:39.136Z,24.19
2023-02-23T07:49:40.150Z,24.16
2023-02-23T07:50:40.136Z,24.26
2023-02-23T07:51:39.173Z,24.27
2023-02-23T07:52:39.241Z,24.43
2023-02-23T07:53:40.290Z,24.64
2023-02-23T07:54:40.251Z,24.78
2023-02-23T07:55:39.273Z,24.92
2023-02-23T07:56:40.294Z,24.68
2023-02-23T07:57:39.805Z,24.81
2023-02-23T07:58:39.359Z,24.54
2023-02-23T07:59:40.669Z,24.54
2023-02-23T08:00:40.679Z,24.50
2023-02-23T08:01:40.469Z,24.47
2023-02-23T08:02:40.460Z,24.49
2023-02-23T08:03:39.443Z,24.43
2023-02-23T08:04:40.868Z,24.47
2023-02-23T08:05:40.563Z,24.42
2023-02-23T08:06:40.517Z,24.40
2023-02-23T08:07:40.520Z,24.40
2023-02-23T08:08:40.542Z,24.44
2023-02-23T08:09:40.569Z,24.40
2023-02-23T08:10:40.596Z,24.50
2023-02-23T08:11:39.606Z,24.32
2023-02-23T08:12:40.691Z,24.33
2023-02-23T08:13:40.648Z,24.22
2023-02-23T08:14:40.657Z,24.34
2023-02-23T08:15:39.728Z,24.42
2023-02-23T08:16:40.774Z,24.19
2023-02-23T08:17:39.762Z,24.30
2023-02-23T08:18:40.835Z,24.34
2023-02-23T08:19:40.791Z,24.36
2023-02-23T08:20:39.970Z,24.29
2023-02-23T08:21:39.875Z,24.33
2023-02-23T08:22:49.483Z,24.52
2023-02-23T08:23:40.814Z,24.44
2023-02-23T08:24:40.814Z,24.47
2023-02-23T08:25:41.111Z,24.50
2023-02-23T08:26:39.946Z,24.56
2023-02-23T08:27:40.864Z,24.49
2023-02-23T08:28:40.759Z,24.53
2023-02-23T08:29:40.770Z,24.50
2023-02-23T08:30:39.910Z,24.47
2023-02-23T08:31:42.997Z,24.47
2023-02-23T08:32:40.831Z,24.49
2023-02-23T08:33:40.748Z,24.47
2023-02-23T08:34:40.814Z,24.53
2023-02-23T08:35:39.737Z,24.43
2023-02-23T08:36:41.152Z,24.52
2023-02-23T08:37:40.736Z,24.67
2023-02-23T08:38:40.706Z,24.64
2023-02-23T08:39:42.811Z,24.67
2023-02-23T08:40:39.743Z,24.70
2023-02-23T08:41:39.785Z,24.64
2023-02-23T08:42:41.007Z,24.78
2023-02-23T08:43:40.688Z,24.74
2023-02-23T08:44:41.150Z,24.67
2023-02-23T08:45:40.719Z,24.70
2023-02-23T08:46:40.672Z,24.66
2023-02-23T08:47:40.777Z,24.68
2023-02-23T08:48:40.873Z,24.53
2023-02-23T08:49:40.710Z,24.52
2023-02-23T08:50:39.637Z,24.42
2023-02-23T08:51:40.634Z,24.40
2023-02-23T08:52:40.758Z,24.50
2023-02-23T08:53:39.644Z,24.50
2023-02-23T08:54:40.620Z,24.60
2023-02-23T08:55:40.623Z,24.66
2023-02-23T08:56:39.619Z,24.70
2023-02-23T08:57:40.632Z,24.74
2023-02-23T08:58:40.583Z,24.72
2023-02-23T08:59:40.702Z,24.68
2023-02-23T09:00:40.601Z,24.71
2023-02-23T09:01:41.333Z,24.74
2023-02-23T09:02:40.577Z,24.78
2023-02-23T09:03:40.656Z,24.78
2023-02-23T09:04:40.544Z,24.77
2023-02-23T09:05:40.621Z,24.70
2023-02-23T09:06:40.578Z,24.77
2023-02-23T09:07:40.670Z,24.87
2023-02-23T09:08:40.529Z,24.80
2023-02-23T09:09:40.547Z,24.81
2023-02-23T09:10:40.512Z,24.87
2023-02-23T09:11:40.523Z,24.82
2023-02-23T09:12:40.538Z,24.84
2023-02-23T09:13:40.552Z,24.74
2023-02-23T09:14:39.496Z,24.72
2023-02-23T09:15:39.557Z,24.82
2023-02-23T09:16:40.489Z,24.71
2023-02-23T09:17:40.605Z,24.74
2023-02-23T09:18:40.824Z,24.82
2023-02-23T09:19:40.957Z,24.78
2023-02-23T09:20:40.958Z,24.72
2023-02-23T09:21:40.964Z,24.71
2023-02-23T09:23:41.189Z,24.64
2023-02-23T09:24:41.033Z,24.72
2023-02-23T09:25:41.084Z,24.77
2023-02-23T09:26:40.137Z,24.75
2023-02-23T09:28:41.358Z,24.75
2023-02-23T09:29:40.510Z,24.78
2023-02-23T09:30:41.542Z,24.78
2023-02-23T09:31:41.524Z,24.68
2023-02-23T09:32:41.896Z,24.75
2023-02-23T09:33:40.470Z,24.77
2023-02-23T09:34:41.500Z,24.80
2023-02-23T09:35:41.548Z,24.77
2023-02-23T09:36:41.580Z,24.81
2023-02-23T09:37:43.285Z,24.85
2023-02-23T09:38:41.844Z,24.78
2023-02-23T09:39:41.940Z,24.71
2023-02-23T09:40:42.068Z,24.67
2023-02-23T09:41:42.009Z,24.47
2023-02-23T09:42:41.967Z,23.84
2023-02-23T09:43:42.346Z,23.12
2023-02-23T09:44:41.062Z,22.48
2023-02-23T09:45:42.275Z,22.11
2023-02-23T09:46:42.087Z,21.48
2023-02-23T09:47:42.190Z,21.17
2023-02-23T09:48:42.217Z,20.98
2023-02-23T09:49:42.160Z,20.70
2023-02-23T09:50:42.220Z,20.50
2023-02-23T09:51:42.262Z,20.56
2023-02-23T09:52:42.030Z,20.32
2023-02-23T09:53:42.869Z,20.05
2023-02-23T09:54:41.377Z,19.87
2023-02-23T09:55:42.365Z,20.04
2023-02-23T09:56:42.472Z,20.19
2023-02-23T09:57:42.461Z,20.70
2023-02-23T09:58:41.788Z,21.17
2023-02-23T09:59:42.481Z,21.58
2023-02-23T10:00:41.517Z,21.92
2023-02-23T10:01:41.809Z,22.23
2023-02-23T10:02:42.584Z,22.51
2023-02-23T10:03:41.677Z,22.75
2023-02-23T10:04:42.726Z,22.98
2023-02-23T10:05:41.706Z,23.13
2023-02-23T10:06:42.765Z,23.30
2023-02-23T10:07:42.773Z,23.53
2023-02-23T10:08:42.773Z,23.64
2023-02-23T10:09:42.771Z,23.77
2023-02-23T10:10:41.804Z,23.86
2023-02-23T10:11:42.883Z,23.92
2023-02-23T10:12:42.895Z,24.01
2023-02-23T10:13:43.076Z,24.06
2023-02-23T10:14:43.012Z,24.17
2023-02-23T10:15:43.079Z,24.17
2023-02-23T10:16:43.403Z,24.26
2023-02-23T10:17:43.155Z,24.32
2023-02-23T10:18:47.028Z,24.37
2023-02-23T10:19:43.171Z,24.36
2023-02-23T10:20:43.162Z,24.40
2023-02-23T10:22:49.647Z,23.56
2023-02-23T10:23:43.159Z,22.80
2023-02-23T10:24:42.141Z,22.24
2023-02-23T10:25:43.133Z,21.99
2023-02-23T10:26:43.121Z,22.47
2023-02-23T10:27:42.142Z,22.82
2023-02-23T10:28:43.109Z,23.12
2023-02-23T10:29:43.131Z,23.36
2023-02-23T10:30:43.111Z,23.51
2023-02-23T10:31:43.226Z,23.67
2023-02-23T10:32:42.202Z,23.82
2023-02-23T10:33:43.063Z,24.04
2023-02-23T10:34:43.067Z,24.49
2023-02-23T10:36:42.049Z,24.98
2023-02-23T10:37:43.049Z,25.33
2023-02-23T10:38:43.069Z,25.72
2023-02-23T10:39:42.061Z,26.03
2023-02-23T10:40:42.044Z,25.65
2023-02-23T10:41:42.014Z,25.57
2023-02-23T10:42:41.996Z,25.29
2023-02-23T10:43:43.027Z,25.22
2023-02-23T10:44:42.995Z,25.09
2023-02-23T10:45:43.029Z,25.18
2023-02-23T10:46:43.033Z,24.05
2023-02-23T10:47:43.064Z,23.58
2023-02-23T10:48:43.445Z,22.47
2023-02-23T10:49:43.126Z,21.89
2023-02-23T10:50:43.151Z,22.01
2023-02-23T10:51:43.205Z,22.40
2023-02-23T10:52:43.298Z,23.05
2023-02-23T10:53:43.266Z,23.37
2023-02-23T10:54:43.292Z,23.67
2023-02-23T10:55:43.286Z,24.19
2023-02-23T10:56:42.319Z,24.32
2023-02-23T10:57:43.415Z,24.37
2023-02-23T10:58:43.507Z,24.39
2023-02-23T10:59:43.477Z,24.44
2023-02-23T11:00:42.506Z,24.44
2023-02-23T11:01:55.436Z,24.54
2023-02-23T11:02:43.825Z,24.56
2023-02-23T11:03:43.561Z,24.61
2023-02-23T11:04:43.546Z,24.61
2023-02-23T11:05:42.503Z,24.68
2023-02-23T11:06:42.522Z,24.64
2023-02-23T11:07:43.488Z,24.68
2023-02-23T11:08:42.493Z,24.67
2023-02-23T11:09:47.607Z,24.72
2023-02-23T11:10:42.481Z,24.81
2023-02-23T11:11:43.469Z,24.85
2023-02-23T11:13:43.488Z,24.84
2023-02-23T11:14:42.706Z,24.84
2023-02-23T11:15:50.839Z,24.87
2023-02-23T11:16:43.538Z,24.92
2023-02-23T11:17:42.466Z,24.91
2023-02-23T11:18:42.425Z,24.92
2023-02-23T11:19:43.438Z,24.91
2023-02-23T11:20:43.430Z,24.95
2023-02-23T11:21:43.427Z,24.94
2023-02-23T11:22:43.392Z,24.97
2023-02-23T11:23:42.407Z,24.95
2023-02-23T11:24:42.384Z,25.09
2023-02-23T11:25:42.369Z,25.11
2023-02-23T11:26:43.465Z,25.12
2023-02-23T11:32:43.427Z,25.21
2023-02-23T11:34:43.356Z,25.18
2023-02-23T11:35:43.345Z,25.17
2023-02-23T11:36:43.319Z,25.15
2023-02-23T11:37:43.286Z,25.02
2023-02-23T11:38:43.296Z,24.97
2023-02-23T11:39:42.275Z,24.85
2023-02-23T11:40:43.266Z,24.85
2023-02-23T11:41:43.274Z,24.70
2023-02-23T11:42:42.324Z,24.71
2023-02-23T11:43:43.396Z,24.67
2023-02-23T11:44:42.845Z,24.56
2023-02-23T11:45:43.873Z,24.50
2023-02-23T11:46:43.531Z,24.43
2023-02-23T11:47:42.525Z,24.49
2023-02-23T11:48:43.531Z,24.44
2023-02-23T11:49:43.670Z,24.39
2023-02-23T11:50:42.520Z,24.27
2023-02-23T11:51:43.542Z,24.27
2023-02-23T11:52:42.524Z,24.20
2023-02-23T11:53:43.554Z,24.25
2023-02-23T11:54:43.565Z,24.22
2023-02-23T11:55:43.566Z,24.20
2023-02-23T11:56:43.519Z,24.17
2023-02-23T11:57:43.541Z,24.11
2023-02-23T11:58:43.554Z,24.13
2023-02-23T11:59:43.592Z,24.13
2023-02-23T12:00:43.595Z,24.12
2023-02-23T12:01:43.605Z,24.11
2023-02-23T12:02:43.659Z,24.05
2023-02-23T12:03:42.617Z,24.02
2023-02-23T12:04:43.706Z,24.02
2023-02-23T12:05:43.773Z,24.01
2023-02-23T12:06:43.758Z,24.05
2023-02-23T12:07:43.716Z,23.98
2023-02-23T12:08:43.720Z,23.98
2023-02-23T12:09:43.752Z,23.98
2023-02-23T12:10:43.828Z,23.95
2023-02-23T12:11:42.788Z,23.98
2023-02-23T12:18:43.007Z,23.86
2023-02-23T12:25:43.209Z,23.77
2023-02-23T12:27:44.290Z,23.75
2023-02-23T12:39:45.354Z,23.67
2023-02-23T12:42:45.054Z,23.64
2023-02-23T12:43:45.101Z,23.67
2023-02-23T12:45:45.242Z,23.65
2023-02-23T12:46:45.268Z,23.65
2023-02-23T12:47:45.304Z,23.69
2023-02-23T12:48:45.358Z,23.65
2023-02-23T12:49:45.408Z,23.65
2023-02-23T12:50:45.475Z,23.61
2023-02-23T12:55:45.726Z,23.61
2023-02-23T12:56:45.775Z,23.58
2023-02-23T12:57:45.874Z,23.58
2023-02-23T12:58:45.876Z,23.58
2023-02-23T12:59:45.933Z,23.58
2023-02-23T13:00:45.979Z,23.57
2023-02-23T13:01:46.124Z,23.54
2023-02-23T13:02:46.272Z,23.57
2023-02-23T13:03:46.120Z,23.56
2023-02-23T13:04:46.231Z,23.54
2023-02-23T13:05:45.221Z,23.53
2023-02-23T13:06:46.253Z,23.51
2023-02-23T13:07:46.311Z,23.53
2023-02-23T13:08:46.392Z,23.53
2023-02-23T13:09:46.413Z,23.57
2023-02-23T13:10:45.453Z,23.57
2023-02-23T13:11:46.498Z,23.53
2023-02-23T13:12:46.604Z,23.56
2023-02-23T13:13:45.595Z,23.54
2023-02-23T13:14:46.674Z,23.53
2023-02-23T13:15:46.687Z,23.56
2023-02-23T13:16:46.748Z,23.50
2023-02-23T13:17:46.808Z,23.53
2023-02-23T13:18:46.819Z,23.51
2023-02-23T13:19:46.903Z,23.53
2023-02-23T13:20:46.931Z,23.47
2023-02-23T13:21:46.994Z,23.58
2023-02-23T13:22:47.027Z,23.51
2023-02-23T13:23:47.089Z,23.31
2023-02-23T13:24:47.162Z,23.47
2023-02-23T13:25:47.175Z,23.34
2023-02-23T13:26:47.241Z,23.36
2023-02-23T13:27:47.286Z,23.37
2023-02-23T13:28:47.346Z,23.39
2023-02-23T13:29:47.417Z,23.41
2023-02-23T13:30:47.712Z,23.47
2023-02-23T13:31:47.806Z,23.43
2023-02-23T13:32:47.731Z,23.43
2023-02-23T13:33:47.626Z,23.44
2023-02-23T13:34:47.702Z,23.47